Time;durP1;ratioP1;P1;durP2;ratioP2;P2;SDS_P1;SDS_P2;PMS_P1;PMS_P2;Temp;Humidity;BMP_temperature;BMP_pressure;BME280_temperature;BME280_humidity;BME280_pressure;Samples;Min_cycle;Max_cycle;Signal;HPM_P1;HPM_P2
2024/02/03 00:01:50;;;;;;;21.47;12.57;;;;;;;4.31;100.00;99736.72;5012510;28;20206;-58
2024/02/03 00:04:17;;;;;;;17.13;11.00;;;;;;;4.32;100.00;99730.78;5009376;28;20246;-60
2024/02/03 00:06:45;;;;;;;16.97;10.57;;;;;;;4.36;100.00;99724.84;5010041;28;20223;-59
2024/02/03 00:09:15;;;;;;;18.77;11.50;;;;;;;4.35;100.00;99701.03;5010800;28;20294;-61
2024/02/03 00:11:46;;;;;;;20.10;11.80;;;;;;;4.39;100.00;99707.03;5007672;28;20207;-59
2024/02/03 00:14:14;;;;;;;17.67;11.03;;;;;;;4.43;100.00;99713.00;5009223;28;20302;-58
2024/02/03 00:16:42;;;;;;;19.97;11.23;;;;;;;4.42;100.00;99707.06;5004516;28;20233;-61
2024/02/03 00:19:10;;;;;;;16.53;10.07;;;;;;;4.43;100.00;99706.19;5009317;28;20669;-58
2024/02/03 00:21:38;;;;;;;17.33;10.73;;;;;;;4.47;100.00;99714.72;5007652;28;20245;-59
2024/02/03 00:24:06;;;;;;;17.10;10.37;;;;;;;4.48;100.00;99691.78;5004591;28;20218;-61
2024/02/03 00:26:35;;;;;;;16.57;10.23;;;;;;;4.51;100.00;99696.06;5007875;28;20637;-59
2024/02/03 00:29:03;;;;;;;15.30;9.10;;;;;;;4.52;100.00;99692.66;5001008;28;20686;-59
2024/02/03 00:31:31;;;;;;;16.73;10.27;;;;;;;4.51;100.00;99685.84;5006273;28;20233;-62
2024/02/03 00:33:59;;;;;;;13.67;9.60;;;;;;;4.54;100.00;99685.88;5010138;28;20716;-60
2024/02/03 00:36:27;;;;;;;16.57;10.63;;;;;;;4.58;100.00;99682.50;5015044;28;20204;-58
2024/02/03 00:38:55;;;;;;;12.53;8.97;;;;;;;4.60;100.00;99702.09;5009745;28;20613;-59
2024/02/03 00:41:23;;;;;;;15.53;9.77;;;;;;;4.64;100.00;99704.63;5008816;28;20203;-61
2024/02/03 00:43:52;;;;;;;13.83;9.57;;;;;;;4.65;100.00;99679.16;5013284;28;20650;-58
2024/02/03 00:46:20;;;;;;;13.73;8.53;;;;;;;4.68;100.00;99681.72;4998512;28;20208;-58
2024/02/03 00:48:48;;;;;;;15.60;9.73;;;;;;;4.70;100.00;99695.31;5005193;28;20215;-58
2024/02/03 00:51:16;;;;;;;15.13;9.43;;;;;;;4.71;100.00;99668.97;5009457;28;20214;-61
2024/02/03 00:53:44;;;;;;;13.33;9.80;;;;;;;4.73;100.00;99674.09;5013558;28;20758;-61
2024/02/03 00:56:12;;;;;;;14.13;8.53;;;;;;;4.74;100.00;99671.53;5010984;28;20277;-58
2024/02/03 00:58:40;;;;;;;16.13;9.20;;;;;;;4.75;100.00;99665.59;5006497;28;20236;-60
2024/02/03 01:01:09;;;;;;;13.20;8.93;;;;;;;4.76;100.00;99658.78;5017866;28;20787;-56
2024/02/03 01:03:37;;;;;;;13.13;8.37;;;;;;;4.76;100.00;99667.31;5012524;28;20650;-57
2024/02/03 01:06:05;;;;;;;11.30;8.67;;;;;;;4.78;100.00;99649.44;5006713;28;20216;-57
2024/02/03 01:08:33;;;;;;;11.67;8.77;;;;;;;4.78;100.00;99650.28;5002433;28;20212;-57
2024/02/03 01:11:01;;;;;;;15.07;9.20;;;;;;;4.79;100.00;99654.56;5009262;28;20207;-56
2024/02/03 01:13:29;;;;;;;12.47;9.07;;;;;;;4.82;100.00;99639.28;5008134;28;20215;-55
2024/02/03 01:18:39;;;;;;;13.17;9.33;;;;;;;4.84;100.00;99639.28;5150002;27;20615;-56
2024/02/03 01:21:07;;;;;;;14.33;9.90;;;;;;;4.86;100.00;99645.25;5131290;27;20215;-56
2024/02/03 01:23:35;;;;;;;13.37;8.73;;;;;;;4.87;100.00;99644.38;5129654;27;20728;-57
2024/02/03 01:26:03;;;;;;;12.50;9.90;;;;;;;4.84;100.00;99645.22;5135086;27;20661;-60
2024/02/03 01:28:30;;;;;;;15.33;9.37;;;;;;;4.86;100.00;99647.78;5130041;27;20540;-57
2024/02/03 01:30:58;;;;;;;12.03;8.57;;;;;;;4.89;100.00;99652.03;5129148;27;20203;-61
2024/02/03 01:33:28;;;;;;;13.93;9.20;;;;;;;4.94;100.00;99646.13;5131952;27;20249;-56
2024/02/03 01:35:57;;;;;;;12.47;9.07;;;;;;;4.94;100.00;99629.97;5129553;27;20203;-58
2024/02/03 01:38:25;;;;;;;12.13;9.07;;;;;;;4.97;100.00;99650.38;5141614;27;20704;-55
2024/02/03 01:40:53;;;;;;;12.33;9.10;;;;;;;4.96;100.00;99629.09;5129968;27;20210;-57
2024/02/03 01:43:21;;;;;;;13.03;8.93;;;;;;;4.99;100.00;99641.03;5133086;27;20204;-64
2024/02/03 01:45:50;;;;;;;13.17;8.70;;;;;;;5.01;100.00;99655.53;5125862;27;20203;-57
2024/02/03 01:48:18;;;;;;;10.87;8.80;;;;;;;5.02;100.00;99653.81;5133354;27;20199;-57
2024/02/03 01:50:50;;;;;;;13.00;10.20;;;;;;;5.05;100.00;99646.19;5129760;27;20195;-56
2024/02/03 01:53:21;;;;;;;15.63;9.90;;;;;;;5.06;100.00;99637.66;5132218;27;20231;-56
2024/02/03 01:55:49;;;;;;;13.50;9.50;;;;;;;5.09;100.00;99658.09;5133564;27;20608;-56
2024/02/03 01:58:17;;;;;;;12.40;9.47;;;;;;;5.11;100.00;99653.84;5131687;27;20223;-54
2024/02/03 02:00:46;;;;;;;14.37;10.10;;;;;;;5.13;100.00;99653.88;5138306;27;20220;-54
2024/02/03 02:03:14;;;;;;;14.87;9.40;;;;;;;5.14;100.00;99642.81;5126136;27;20207;-56
2024/02/03 02:05:42;;;;;;;12.23;9.70;;;;;;;5.17;100.00;99645.38;5130030;27;20196;-55
2024/02/03 02:08:11;;;;;;;12.57;9.23;;;;;;;5.17;100.00;99628.34;5129040;27;20202;-54
2024/02/03 02:10:40;;;;;;;13.10;9.43;;;;;;;5.21;100.00;99649.63;5132247;27;20210;-60
2024/02/03 02:13:08;;;;;;;11.33;9.97;;;;;;;5.23;100.00;99635.19;5130963;27;20203;-55
2024/02/03 02:15:36;;;;;;;16.40;9.93;;;;;;;5.24;100.00;99632.63;5128076;27;20204;-53
2024/02/03 02:18:04;;;;;;;12.07;9.53;;;;;;;5.25;100.00;99638.59;5126956;27;20703;-55
2024/02/03 02:20:33;;;;;;;12.27;10.27;;;;;;;5.27;100.00;99637.75;5122170;27;20214;-58
2024/02/03 02:23:01;;;;;;;12.03;9.57;;;;;;;5.30;100.00;99637.78;5133301;27;20376;-59
2024/02/03 02:25:29;;;;;;;13.70;9.80;;;;;;;5.30;100.00;99625.00;5138542;27;20565;-58
2024/02/03 02:27:57;;;;;;;12.83;9.80;;;;;;;5.33;100.00;99634.34;5132670;27;20558;-54
2024/02/03 02:30:25;;;;;;;13.17;8.53;;;;;;;5.35;100.00;99631.81;5123614;27;20218;-56
2024/02/03 02:32:53;;;;;;;13.33;9.77;;;;;;;5.37;100.00;99658.19;5118137;27;20235;-56
2024/02/03 02:35:21;;;;;;;11.73;9.47;;;;;;;5.38;100.00;99624.16;5119003;27;20204;-55
2024/02/03 02:37:51;;;;;;;13.00;10.37;;;;;;;5.39;100.00;99620.75;5112071;28;20212;-61
2024/02/03 02:40:19;;;;;;;12.10;9.43;;;;;;;5.41;100.00;99606.25;5118598;27;20199;-54
2024/02/03 02:42:47;;;;;;;13.43;9.63;;;;;;;5.42;100.00;99613.94;5119510;27;20219;-56
2024/02/03 02:45:15;;;;;;;14.43;10.93;;;;;;;5.44;100.00;99607.13;5126956;27;20199;-53
2024/02/03 02:47:43;;;;;;;12.10;10.37;;;;;;;5.44;100.00;99596.06;5113590;27;20234;-55
2024/02/03 02:50:11;;;;;;;12.67;9.70;;;;;;;5.47;100.00;99608.84;5126001;27;20229;-54
2024/02/03 02:52:39;;;;;;;16.93;10.80;;;;;;;5.45;100.00;99598.63;5115600;27;20597;-58
2024/02/03 02:55:09;;;;;;;13.80;10.40;;;;;;;5.48;100.00;99597.75;5102059;27;20222;-56
2024/02/03 02:57:36;;;;;;;16.20;9.97;;;;;;;5.48;100.00;99562.84;5110443;28;20220;-58
2024/02/03 03:00:05;;;;;;;12.73;9.27;;;;;;;5.49;100.00;99599.50;5123786;27;20207;-53
2024/02/03 03:02:33;;;;;;;14.83;9.73;;;;;;;5.51;100.00;99613.09;5114362;27;20253;-55
2024/02/03 03:05:01;;;;;;;13.53;9.67;;;;;;;5.52;100.00;99605.47;5117828;27;20292;-64
2024/02/03 03:07:29;;;;;;;14.40;11.00;;;;;;;5.52;100.00;99612.25;5113397;28;20704;-60
2024/02/03 03:09:57;;;;;;;11.30;9.07;;;;;;;5.54;100.00;99600.34;5113065;28;20197;-58
2024/02/03 03:12:26;;;;;;;11.97;9.40;;;;;;;5.54;100.00;99606.28;5107407;28;20191;-60
2024/02/03 03:14:54;;;;;;;12.97;10.47;;;;;;;5.55;100.00;99597.78;5119033;27;20200;-58
2024/02/03 03:17:22;;;;;;;11.40;9.23;;;;;;;5.55;100.00;99620.78;5122948;27;20301;-60
2024/02/03 03:19:49;;;;;;;12.40;10.00;;;;;;;5.58;100.00;99602.03;5115952;27;20284;-58
2024/02/03 03:22:18;;;;;;;13.43;8.67;;;;;;;5.58;100.00;99596.94;5119567;27;20199;-59
2024/02/03 03:24:46;;;;;;;12.53;8.90;;;;;;;5.61;100.00;99614.84;5117013;27;20236;-59
2024/02/03 03:27:14;;;;;;;13.63;10.07;;;;;;;5.61;100.00;99599.50;5123639;27;20235;-58
2024/02/03 03:29:44;;;;;;;11.77;9.03;;;;;;;5.60;100.00;99613.13;5119236;27;20753;-57
2024/02/03 03:32:12;;;;;;;11.83;9.27;;;;;;;5.62;100.00;99593.53;5112991;27;20228;-61
2024/02/03 03:34:41;;;;;;;12.47;9.10;;;;;;;5.64;100.00;99589.28;5111081;27;20756;-56
2024/02/03 03:37:09;;;;;;;12.13;9.43;;;;;;;5.64;100.00;99604.63;5119187;27;20670;-60
2024/02/03 03:39:37;;;;;;;11.40;8.53;;;;;;;5.65;100.00;99629.31;5113245;27;20307;-59
2024/02/03 03:42:05;;;;;;;13.37;8.37;;;;;;;5.67;100.00;99619.97;5114564;27;20235;-59
2024/02/03 03:44:34;;;;;;;11.20;9.10;;;;;;;5.67;100.00;99604.63;5119013;27;20199;-59
2024/02/03 03:47:03;;;;;;;11.67;8.27;;;;;;;5.68;100.00;99583.31;5117459;27;20580;-59
2024/02/03 03:49:32;;;;;;;11.33;7.80;;;;;;;5.70;100.00;99599.50;5112299;27;20208;-59
2024/02/03 03:52:01;;;;;;;11.63;8.30;;;;;;;5.70;100.00;99602.03;5115183;27;20251;-59
2024/02/03 03:54:29;;;;;;;12.13;9.03;;;;;;;5.72;100.00;99595.25;5120857;27;20200;-57
2024/02/03 03:56:57;;;;;;;12.83;9.47;;;;;;;5.70;100.00;99609.72;5113319;27;20208;-57
2024/02/03 03:59:25;;;;;;;11.40;8.47;;;;;;;5.73;100.00;99594.38;5111981;28;20220;-59
2024/02/03 04:01:53;;;;;;;10.20;8.00;;;;;;;5.75;100.00;99607.19;5107632;27;20735;-60
2024/02/03 04:04:22;;;;;;;11.33;8.47;;;;;;;5.74;100.00;99591.00;5113455;27;20196;-62
2024/02/03 04:06:50;;;;;;;11.70;8.73;;;;;;;5.76;100.00;99583.31;5116400;27;20239;-58
2024/02/03 04:09:18;;;;;;;11.47;8.17;;;;;;;5.77;100.00;99593.53;5112475;28;20285;-57
2024/02/03 04:11:46;;;;;;;11.60;7.97;;;;;;;5.77;100.00;99588.41;5111653;28;20203;-60
2024/02/03 04:14:13;;;;;;;10.27;8.13;;;;;;;5.77;100.00;99574.78;5112015;28;20210;-59
2024/02/03 04:16:41;;;;;;;10.37;8.20;;;;;;;5.79;100.00;99578.22;5111361;28;20238;-59
2024/02/03 04:19:09;;;;;;;11.40;7.77;;;;;;;5.80;100.00;99583.31;5110263;28;20678;-55
2024/02/03 04:21:39;;;;;;;10.37;7.67;;;;;;;5.81;100.00;99587.56;5109963;28;20290;-56
2024/02/03 04:24:07;;;;;;;10.97;7.80;;;;;;;5.81;100.00;99582.44;5115406;27;20218;-55
2024/02/03 04:26:35;;;;;;;9.20;6.83;;;;;;;5.82;100.00;99580.78;5112697;27;20204;-60
2024/02/03 04:29:02;;;;;;;9.67;6.73;;;;;;;5.85;100.00;99582.47;5119099;27;20195;-56
2024/02/03 04:31:30;;;;;;;10.43;7.67;;;;;;;5.87;100.00;99593.56;5111974;27;20227;-57
2024/02/03 04:33:59;;;;;;;9.17;7.30;;;;;;;5.87;100.00;99591.84;5119602;27;20623;-57
2024/02/03 04:36:27;;;;;;;9.27;6.73;;;;;;;5.89;100.00;99596.94;5112680;27;20621;-63
2024/02/03 04:38:57;;;;;;;9.40;6.73;;;;;;;5.93;100.00;99597.00;5111940;27;20580;-55
2024/02/03 04:41:25;;;;;;;8.90;7.00;;;;;;;5.94;100.00;99600.41;5114412;27;20643;-56
2024/02/03 04:43:53;;;;;;;8.70;6.90;;;;;;;5.95;100.00;99582.50;5114164;27;20200;-59
2024/02/03 04:46:21;;;;;;;8.67;6.97;;;;;;;5.96;100.00;99588.47;5114000;27;20651;-55
2024/02/03 04:48:49;;;;;;;9.60;6.70;;;;;;;5.98;100.00;99600.41;5113375;27;20253;-59
2024/02/03 04:51:17;;;;;;;7.73;6.33;;;;;;;6.01;100.00;99587.63;5115567;27;20261;-56
2024/02/03 04:53:45;;;;;;;7.50;5.57;;;;;;;6.02;100.00;99580.78;5114025;27;20203;-56
2024/02/03 04:56:14;;;;;;;7.47;6.07;;;;;;;6.03;100.00;99575.66;5107064;28;20204;-58
2024/02/03 04:58:43;;;;;;;8.03;6.27;;;;;;;6.07;100.00;99588.44;5111592;28;20679;-55
2024/02/03 05:01:11;;;;;;;6.67;5.90;;;;;;;6.07;100.00;99589.31;5113786;27;20264;-58
2024/02/03 05:03:39;;;;;;;8.00;6.10;;;;;;;6.09;100.00;99582.50;5118419;27;20192;-55
2024/02/03 05:06:08;;;;;;;7.20;5.93;;;;;;;6.11;100.00;99590.16;5115116;27;20249;-56
2024/02/03 05:08:36;;;;;;;7.83;6.33;;;;;;;6.10;100.00;99580.78;5111471;28;20210;-55
2024/02/03 05:11:04;;;;;;;6.77;5.47;;;;;;;6.13;100.00;99585.91;5111430;28;20200;-55
2024/02/03 05:13:34;;;;;;;7.93;5.70;;;;;;;6.13;100.00;99571.41;5105892;28;20647;-53
2024/02/03 05:16:03;;;;;;;8.67;6.13;;;;;;;6.14;100.00;99575.66;5112734;28;20208;-57
2024/02/03 05:18:30;;;;;;;6.40;5.47;;;;;;;6.15;100.00;99572.28;5113194;28;20296;-58
2024/02/03 05:20:58;;;;;;;6.67;5.67;;;;;;;6.13;100.00;99566.28;5113189;28;20573;-54
2024/02/03 05:23:26;;;;;;;6.63;5.37;;;;;;;6.16;100.00;99558.63;5112974;28;20667;-55
2024/02/03 05:25:54;;;;;;;5.63;4.80;;;;;;;6.18;100.00;99561.16;5115238;28;21306;-56
2024/02/03 05:28:22;;;;;;;6.77;5.13;;;;;;;6.20;100.00;99570.53;5111275;28;20201;-55
2024/02/03 05:30:51;;;;;;;5.77;4.70;;;;;;;6.22;100.00;99579.09;5110235;28;20557;-60
2024/02/03 05:33:19;;;;;;;5.97;4.97;;;;;;;6.26;100.00;99592.72;5113424;28;20252;-57
2024/02/03 05:35:47;;;;;;;6.10;4.90;;;;;;;6.27;100.00;99602.94;5113504;28;20203;-58
2024/02/03 05:38:15;;;;;;;5.77;5.07;;;;;;;6.31;100.00;99592.72;5112081;28;20220;-56
2024/02/03 05:40:43;;;;;;;5.57;4.30;;;;;;;6.35;100.00;99591.84;5110470;28;20226;-55
2024/02/03 05:43:11;;;;;;;6.00;4.57;;;;;;;6.37;100.00;99597.78;5112106;28;20248;-58
2024/02/03 05:45:39;;;;;;;5.30;4.80;;;;;;;6.41;100.00;99594.41;5108267;28;20228;-54
2024/02/03 05:48:09;;;;;;;5.70;4.27;;;;;;;6.43;100.00;99595.22;5111049;28;20196;-57
2024/02/03 05:50:37;;;;;;;4.53;3.80;;;;;;;6.48;100.00;99609.75;5105075;28;20239;-54
2024/02/03 05:53:05;;;;;;;4.40;3.97;;;;;;;6.53;100.00;99617.41;5116435;28;20196;-55
2024/02/03 05:55:35;;;;;;;4.17;3.77;;;;;;;6.56;100.00;99602.03;5117083;28;20204;-58
2024/02/03 05:58:03;;;;;;;3.93;3.53;;;;;;;6.60;100.00;99616.53;5118517;28;20703;-62
2024/02/03 06:00:31;;;;;;;5.37;4.00;;;;;;;6.63;100.00;99616.53;5112137;28;20675;-54
2024/02/03 06:02:59;;;;;;;4.20;3.57;;;;;;;6.65;100.00;99619.91;5109659;28;20208;-53
2024/02/03 06:05:28;;;;;;;3.80;3.47;;;;;;;6.70;100.00;99614.78;5117929;27;20686;-54
2024/02/03 06:07:56;;;;;;;4.07;3.63;;;;;;;6.72;100.00;99615.66;5109840;28;20200;-58
2024/02/03 06:10:24;;;;;;;3.33;3.03;;;;;;;6.75;100.00;99605.41;5113777;27;20200;-53
2024/02/03 06:12:52;;;;;;;2.97;2.53;;;;;;;6.80;100.00;99613.06;5116186;27;20662;-55
2024/02/03 06:15:20;;;;;;;4.03;3.07;;;;;;;6.83;100.00;99618.16;5117304;27;20666;-54
2024/02/03 06:17:48;;;;;;;3.20;2.90;;;;;;;6.84;100.00;99620.72;5115799;27;20601;-54
2024/02/03 06:20:16;;;;;;;3.03;2.73;;;;;;;6.88;100.00;99611.31;5120191;27;20628;-53
2024/02/03 06:22:46;;;;;;;4.50;2.80;;;;;;;6.91;100.00;99611.31;5125653;27;20213;-56
2024/02/03 06:25:14;;;;;;;2.97;2.70;;;;;;;6.93;100.00;99615.56;5109436;27;20231;-57
2024/02/03 06:27:42;;;;;;;3.63;2.80;;;;;;;6.95;100.00;99597.63;5118629;27;20295;-57
2024/02/03 06:30:11;;;;;;;2.93;2.40;;;;;;;6.97;100.00;99614.69;5119188;27;20625;-55
2024/02/03 06:32:39;;;;;;;2.43;2.17;;;;;;;6.98;100.00;99607.88;5116295;27;20249;-56
2024/02/03 06:35:07;;;;;;;2.80;2.50;;;;;;;7.01;100.00;99628.34;5115495;27;20300;-55
2024/02/03 06:37:35;;;;;;;3.93;2.63;;;;;;;7.02;100.00;99617.25;5123568;27;20204;-54
2024/02/03 06:40:06;;;;;;;2.63;2.43;;;;;;;6.99;100.00;99615.53;5113746;28;20678;-54
2024/02/03 06:42:34;;;;;;;4.17;3.43;;;;;;;7.01;100.00;99636.03;5095714;27;20232;-54
2024/02/03 06:45:02;;;;;;;3.93;2.80;;;;;;;7.02;100.00;99627.47;5114124;27;20459;-56
2024/02/03 06:47:30;;;;;;;4.33;3.27;;;;;;;7.00;100.00;99647.16;5113854;28;20220;-55
2024/02/03 06:49:58;;;;;;;5.57;3.60;;;;;;;7.00;100.00;99631.78;5111671;28;20206;-55
2024/02/03 06:52:26;;;;;;;5.37;3.30;;;;;;;6.99;100.00;99650.53;5108407;27;20222;-55
2024/02/03 06:54:54;;;;;;;4.53;3.27;;;;;;;6.97;100.00;99653.13;5114460;27;20676;-60
2024/02/03 06:57:23;;;;;;;3.73;3.37;;;;;;;6.95;100.00;99651.41;5111378;27;20269;-55
2024/02/03 06:59:51;;;;;;;4.60;4.07;;;;;;;6.95;100.00;99641.16;5111681;27;20208;-58
2024/02/03 07:02:19;;;;;;;5.70;3.93;;;;;;;6.95;100.00;99653.97;5115312;27;20207;-55
2024/02/03 07:04:47;;;;;;;7.33;4.80;;;;;;;6.93;100.00;99642.91;5112309;27;20273;-55
2024/02/03 07:07:15;;;;;;;5.67;4.00;;;;;;;6.93;100.00;99651.44;5114297;27;20210;-56
2024/02/03 07:09:43;;;;;;;5.27;4.77;;;;;;;6.93;100.00;99646.31;5113499;28;20216;-54
2024/02/03 07:12:11;;;;;;;4.80;4.17;;;;;;;6.93;100.00;99646.31;5112438;27;20204;-54
2024/02/03 07:14:40;;;;;;;5.53;5.00;;;;;;;6.95;100.00;99643.72;5108679;27;20237;-58
2024/02/03 07:17:08;;;;;;;4.90;4.40;;;;;;;6.96;100.00;99661.66;5108732;27;20718;-54
2024/02/03 07:19:36;;;;;;;6.33;4.97;;;;;;;6.96;100.00;99646.31;5110218;27;20564;-55
2024/02/03 07:22:04;;;;;;;5.97;5.13;;;;;;;6.98;100.00;99648.84;5109359;27;20298;-56
2024/02/03 07:24:32;;;;;;;5.83;4.83;;;;;;;7.01;100.00;99639.44;5117172;27;20231;-55
2024/02/03 07:27:00;;;;;;;5.67;5.07;;;;;;;7.01;100.00;99653.97;5113076;27;20208;-57
2024/02/03 07:29:28;;;;;;;6.80;5.07;;;;;;;6.98;100.00;99649.69;5115494;27;20218;-56
2024/02/03 07:32:01;;;;;;;5.87;5.13;;;;;;;7.02;100.00;99676.16;5114702;27;20205;-62
2024/02/03 07:34:29;;;;;;;6.80;5.30;;;;;;;7.03;100.00;99675.28;5117806;27;20203;-58
2024/02/03 07:36:57;;;;;;;7.23;5.57;;;;;;;7.04;100.00;99673.59;5114789;27;20229;-64
2024/02/03 07:39:25;;;;;;;7.10;6.00;;;;;;;7.03;100.00;99657.34;5108037;27;20200;-55
2024/02/03 07:41:53;;;;;;;7.23;5.47;;;;;;;7.04;100.00;99669.34;5117601;27;20243;-57
2024/02/03 07:44:21;;;;;;;8.43;6.27;;;;;;;7.04;100.00;99673.59;5115666;27;20203;-56
2024/02/03 07:46:53;;;;;;;7.43;5.80;;;;;;;7.04;100.00;99669.34;5113159;28;20722;-56
2024/02/03 07:49:22;;;;;;;6.23;5.63;;;;;;;7.05;100.00;99670.19;5112743;28;20195;-59
2024/02/03 07:51:50;;;;;;;8.30;6.93;;;;;;;7.06;100.00;99662.47;5111010;27;20214;-57
2024/02/03 07:54:18;;;;;;;8.37;7.37;;;;;;;7.05;100.00;99645.41;5104221;28;20258;-57
2024/02/03 07:56:46;;;;;;;9.27;7.80;;;;;;;7.04;100.00;99658.22;5114589;27;20269;-60
2024/02/03 07:59:15;;;;;;;10.23;8.33;;;;;;;7.02;100.00;99653.94;5116911;27;20239;-58
2024/02/03 08:01:42;;;;;;;11.13;9.27;;;;;;;7.01;100.00;99677.03;5113543;27;20215;-65
2024/02/03 08:04:10;;;;;;;10.67;9.30;;;;;;;7.01;100.00;99665.06;5112346;27;20215;-58
2024/02/03 08:06:40;;;;;;;11.70;9.17;;;;;;;6.99;100.00;99663.34;5116487;27;20682;-59
2024/02/03 08:09:08;;;;;;;15.03;10.37;;;;;;;7.01;100.00;99674.47;5112500;28;20269;-58
2024/02/03 08:11:36;;;;;;;12.73;9.23;;;;;;;7.02;100.00;99663.34;5112470;28;20283;-57
2024/02/03 08:14:04;;;;;;;13.10;9.63;;;;;;;7.02;100.00;99664.19;5112045;28;20200;-58
2024/02/03 08:16:32;;;;;;;10.43;9.03;;;;;;;7.04;100.00;99664.22;5111010;27;20258;-61
2024/02/03 08:19:01;;;;;;;13.73;10.03;;;;;;;7.07;100.00;99665.88;5118652;27;20658;-59
2024/02/03 08:21:29;;;;;;;16.83;11.07;;;;;;;7.08;100.00;99665.06;5103048;28;20316;-57
2024/02/03 08:24:00;;;;;;;12.17;9.80;;;;;;;7.10;100.00;99666.72;5108207;28;20215;-60
2024/02/03 08:26:28;;;;;;;10.50;8.83;;;;;;;7.13;100.00;99673.56;5110615;27;20204;-60
2024/02/03 08:28:56;;;;;;;13.10;8.97;;;;;;;7.15;100.00;99669.28;5113205;27;20710;-60
2024/02/03 08:31:24;;;;;;;11.73;9.57;;;;;;;7.17;100.00;99665.84;5116607;27;20279;-59
2024/02/03 08:33:52;;;;;;;10.60;9.03;;;;;;;7.18;100.00;99675.25;5114645;27;20810;-60
2024/02/03 08:36:20;;;;;;;12.97;9.60;;;;;;;7.21;100.00;99674.38;5112351;27;20674;-58
2024/02/03 08:38:48;;;;;;;12.43;9.33;;;;;;;7.22;100.00;99669.25;5114951;27;20592;-57
2024/02/03 08:41:17;;;;;;;10.60;8.83;;;;;;;7.24;100.00;99676.94;5115201;27;20251;-57
2024/02/03 08:43:45;;;;;;;10.40;8.27;;;;;;;7.26;100.00;99672.66;5111686;28;20303;-59
2024/02/03 08:46:13;;;;;;;11.33;9.37;;;;;;;7.26;100.00;99664.97;5116940;27;20741;-58
2024/02/03 08:48:41;;;;;;;9.63;8.63;;;;;;;7.29;100.00;99664.09;5116289;27;20653;-58
2024/02/03 08:51:09;;;;;;;12.40;9.70;;;;;;;7.31;100.00;99673.47;5116269;27;20646;-62
2024/02/03 08:53:37;;;;;;;12.37;9.30;;;;;;;7.32;100.00;99670.06;5116914;27;20685;-59
2024/02/03 08:56:07;;;;;;;12.10;9.13;;;;;;;7.34;100.00;99678.59;5105060;28;20630;-58
2024/02/03 08:58:36;;;;;;;10.13;8.33;;;;;;;7.36;100.00;99671.75;5108723;27;20265;-56
2024/02/03 09:01:04;;;;;;;12.17;9.20;;;;;;;7.37;100.00;99675.19;5112480;27;20572;-61
2024/02/03 09:03:32;;;;;;;11.70;8.70;;;;;;;7.39;100.00;99671.72;5107153;28;20206;-57
2024/02/03 09:06:00;;;;;;;10.93;8.57;;;;;;;7.42;100.00;99671.72;5104230;27;20226;-57
2024/02/03 09:08:29;;;;;;;9.87;7.70;;;;;;;7.43;100.00;99670.00;5103776;28;20199;-57
2024/02/03 09:10:57;;;;;;;9.80;8.10;;;;;;;7.46;100.00;99675.97;5107345;27;20295;-56
2024/02/03 09:13:25;;;;;;;10.30;8.40;;;;;;;7.49;100.00;99664.84;5112866;28;20228;-55
2024/02/03 09:15:55;;;;;;;10.47;7.80;;;;;;;7.50;100.00;99674.25;5124333;27;20235;-55
2024/02/03 09:18:23;;;;;;;11.30;8.83;;;;;;;7.54;100.00;99669.97;5119401;28;20230;-56
2024/02/03 09:20:51;;;;;;;12.27;8.67;;;;;;;7.55;100.00;99652.03;5115425;28;20200;-55
2024/02/03 09:23:19;;;;;;;9.87;7.70;;;;;;;7.59;100.00;99665.69;5105834;28;20607;-56
2024/02/03 09:25:48;;;;;;;9.77;7.70;;;;;;;7.64;100.00;99662.22;5125347;28;20206;-56
2024/02/03 09:28:16;;;;;;;8.40;7.17;;;;;;;7.66;100.00;99654.53;5112359;28;20858;-55
2024/02/03 09:30:44;;;;;;;8.77;7.17;;;;;;;7.70;100.00;99646.78;5103090;28;20208;-57
2024/02/03 09:33:13;;;;;;;7.83;7.00;;;;;;;7.75;100.00;99652.72;5114964;28;20257;-57
2024/02/03 09:35:41;;;;;;;8.77;6.97;;;;;;;7.80;100.00;99646.72;5111553;28;20211;-61
2024/02/03 09:38:09;;;;;;;7.97;7.17;;;;;;;7.83;100.00;99656.97;5116234;28;20227;-56
2024/02/03 09:40:37;;;;;;;7.53;6.40;;;;;;;7.84;100.00;99643.28;5115600;28;20204;-59
2024/02/03 09:43:05;;;;;;;8.90;7.17;;;;;;;7.88;100.00;99650.06;5120086;27;20665;-57
2024/02/03 09:45:33;;;;;;;7.17;6.43;;;;;;;7.90;100.00;99653.50;5116716;27;20207;-58
2024/02/03 09:48:02;;;;;;;8.57;6.93;;;;;;;7.90;100.00;99638.09;5115068;27;20581;-56
2024/02/03 09:50:32;;;;;;;7.30;6.30;;;;;;;7.94;100.00;99655.19;5117022;27;20196;-57
2024/02/03 09:53:01;;;;;;;8.23;6.07;;;;;;;7.98;100.00;99669.69;5114982;27;20615;-56
2024/02/03 09:55:29;;;;;;;7.03;5.90;;;;;;;7.99;100.00;99676.53;5107425;27;20200;-56
2024/02/03 09:57:59;;;;;;;8.10;6.30;;;;;;;7.97;100.00;99691.06;5114090;27;20288;-59
2024/02/03 10:00:27;;;;;;;7.17;6.27;;;;;;;7.98;100.00;99687.63;5112089;28;20235;-59
2024/02/03 10:02:55;;;;;;;7.33;6.10;;;;;;;7.97;100.00;99683.38;5114235;27;20593;-56
2024/02/03 10:05:27;;;;;;;7.27;6.23;;;;;;;7.97;100.00;99681.66;5110987;27;20845;-59
2024/02/03 10:08:05;;;;;;;9.20;7.00;;;;;;;7.96;100.00;99679.97;5111026;27;20199;-58
2024/02/03 10:10:35;;;;;;;8.10;6.83;;;;;;;7.97;100.00;99680.81;5115620;27;20286;-56
2024/02/03 10:13:08;;;;;;;9.37;8.10;;;;;;;7.97;100.00;99679.09;5110069;27;20196;-55
2024/02/03 10:15:36;;;;;;;7.57;6.73;;;;;;;7.95;100.00;99667.13;5113970;27;20565;-54
2024/02/03 10:18:05;;;;;;;8.57;6.93;;;;;;;7.97;100.00;99675.69;5114095;27;20722;-53
2024/02/03 10:20:35;;;;;;;9.13;6.93;;;;;;;7.99;100.00;99659.44;5130453;27;20195;-54
2024/02/03 10:23:05;;;;;;;9.17;6.90;;;;;;;8.07;100.00;99666.22;5113634;27;20219;-55
2024/02/03 10:25:34;;;;;;;7.13;5.97;;;;;;;8.13;100.00;99666.16;5113746;27;20569;-55
2024/02/03 10:28:03;;;;;;;9.03;6.43;;;;;;;8.17;100.00;99665.25;5111135;27;20359;-56
2024/02/03 10:30:33;;;;;;;10.63;6.77;;;;;;;8.20;100.00;99658.38;5108377;27;20215;-54
2024/02/03 10:33:02;;;;;;;9.33;7.63;;;;;;;8.29;100.00;99666.91;5119055;27;20293;-56
2024/02/03 10:35:31;;;;;;;7.50;6.70;;;;;;;8.36;100.00;99669.41;5115615;27;20648;-54
2024/02/03 10:38:00;;;;;;;8.50;6.70;;;;;;;8.41;99.70;99662.53;5123183;27;20195;-53
2024/02/03 10:40:31;;;;;;;8.00;5.70;;;;;;;8.44;99.65;99656.53;5119554;27;20234;-54
2024/02/03 10:42:59;;;;;;;8.30;5.73;;;;;;;8.45;99.07;99663.34;5114374;27;20238;-56
2024/02/03 10:45:31;;;;;;;9.00;6.00;;;;;;;8.48;99.09;99665.91;5119281;27;20207;-53
2024/02/03 10:48:01;;;;;;;8.67;7.00;;;;;;;8.46;98.29;99649.63;5116541;27;20279;-55
2024/02/03 10:50:35;;;;;;;7.70;6.00;;;;;;;8.48;97.48;99663.31;5114722;27;20196;-55
2024/02/03 10:53:07;;;;;;;6.00;5.40;;;;;;;8.51;97.08;99665.03;5109900;27;20203;-54
2024/02/03 10:55:41;;;;;;;6.93;5.30;;;;;;;8.54;97.47;99667.53;5116751;27;20210;-56
2024/02/03 10:58:11;;;;;;;7.83;6.07;;;;;;;8.53;97.70;99676.13;5119393;27;20252;-54
2024/02/03 11:00:38;;;;;;;9.03;5.60;;;;;;;8.53;97.31;99682.09;5119639;27;20540;-54
2024/02/03 11:03:08;;;;;;;5.63;4.93;;;;;;;8.54;97.82;99686.34;5127231;27;20218;-57
2024/02/03 11:05:37;;;;;;;5.50;4.90;;;;;;;8.51;97.56;99681.28;5111893;27;20207;-55
2024/02/03 11:08:09;;;;;;;5.53;4.60;;;;;;;8.52;97.38;99685.53;5112318;27;20211;-59
2024/02/03 11:10:40;;;;;;;5.50;4.73;;;;;;;8.55;97.48;99661.56;5106469;28;20239;-56
2024/02/03 11:13:20;;;;;;;5.03;4.13;;;;;;;8.60;96.14;99676.03;5118460;27;20550;-55
2024/02/03 11:15:55;;;;;;;6.17;4.70;;;;;;;8.67;95.96;99687.13;5117904;27;20663;-54
2024/02/03 11:18:23;;;;;;;4.20;3.70;;;;;;;8.72;96.37;99685.34;5114946;27;20254;-55
2024/02/03 11:21:04;;;;;;;4.20;3.10;;;;;;;8.78;93.78;99694.72;5118949;27;20281;-55
2024/02/03 11:23:32;;;;;;;7.07;3.47;;;;;;;8.84;94.20;99667.25;5109151;27;20231;-58
2024/02/03 11:26:02;;;;;;;3.63;2.83;;;;;;;8.93;93.34;99686.84;5114623;27;20204;-55
2024/02/03 11:28:31;;;;;;;3.63;2.40;;;;;;;8.98;91.79;99685.06;5113571;27;20204;-58
2024/02/03 11:31:00;;;;;;;2.57;2.13;;;;;;;9.03;90.86;99678.19;5122557;27;20594;-55
2024/02/03 11:33:29;;;;;;;2.40;2.00;;;;;;;9.10;91.31;99673.81;5114710;27;20235;-56
2024/02/03 11:36:02;;;;;;;2.83;1.80;;;;;;;9.17;89.27;99678.03;5122036;27;20207;-57
2024/02/03 11:38:30;;;;;;;2.23;1.73;;;;;;;9.29;90.44;99682.16;5125699;27;20218;-55